sensor_id;sensor_type;location;lat;lon;timestamp;P1;durP1;ratioP1;P2;durP2;ratioP2
78824;SDS011;68176;45.554;10.220;2024-03-07T00:03:50;3.28;;;1.55;;
78824;SDS011;68176;45.554;10.220;2024-03-07T00:06:20;2.75;;;1.65;;
78824;SDS011;68176;45.554;10.220;2024-03-07T00:08:50;2.85;;;2.28;;
78824;SDS011;68176;45.554;10.220;2024-03-07T00:13:50;3.03;;;1.73;;
78824;SDS011;68176;45.554;10.220;2024-03-07T00:16:21;3.67;;;2.20;;
78824;SDS011;68176;45.554;10.220;2024-03-07T00:18:50;3.38;;;1.85;;
78824;SDS011;68176;45.554;10.220;2024-03-07T00:21:20;3.00;;;2.03;;
78824;SDS011;68176;45.554;10.220;2024-03-07T00:23:51;4.38;;;1.83;;
78824;SDS011;68176;45.554;10.220;2024-03-07T00:26:20;2.83;;;1.80;;
78824;SDS011;68176;45.554;10.220;2024-03-07T00:28:51;2.30;;;1.45;;
78824;SDS011;68176;45.554;10.220;2024-03-07T00:31:20;3.17;;;2.15;;
78824;SDS011;68176;45.554;10.220;2024-03-07T00:33:51;3.47;;;1.98;;
78824;SDS011;68176;45.554;10.220;2024-03-07T00:36:20;2.35;;;1.58;;
78824;SDS011;68176;45.554;10.220;2024-03-07T00:38:51;2.55;;;1.55;;
78824;SDS011;68176;45.554;10.220;2024-03-07T00:41:21;2.53;;;1.63;;
78824;SDS011;68176;45.554;10.220;2024-03-07T00:46:20;2.67;;;1.73;;
78824;SDS011;68176;45.554;10.220;2024-03-07T00:48:51;2.88;;;1.52;;
78824;SDS011;68176;45.554;10.220;2024-03-07T00:51:20;2.78;;;1.67;;
78824;SDS011;68176;45.554;10.220;2024-03-07T00:53:51;3.03;;;1.77;;
78824;SDS011;68176;45.554;10.220;2024-03-07T00:56:21;2.58;;;1.73;;
78824;SDS011;68176;45.554;10.220;2024-03-07T00:58:51;3.92;;;2.40;;
78824;SDS011;68176;45.554;10.220;2024-03-07T01:03:51;2.72;;;1.65;;
78824;SDS011;68176;45.554;10.220;2024-03-07T01:06:21;2.80;;;1.63;;
78824;SDS011;68176;45.554;10.220;2024-03-07T01:08:51;2.83;;;1.50;;
78824;SDS011;68176;45.554;10.220;2024-03-07T01:11:21;2.83;;;2.28;;
78824;SDS011;68176;45.554;10.220;2024-03-07T01:13:51;2.92;;;1.85;;
78824;SDS011;68176;45.554;10.220;2024-03-07T01:16:21;3.35;;;1.98;;
78824;SDS011;68176;45.554;10.220;2024-03-07T01:18:51;2.67;;;1.73;;
78824;SDS011;68176;45.554;10.220;2024-03-07T01:21:21;2.35;;;1.23;;
78824;SDS011;68176;45.554;10.220;2024-03-07T01:23:51;2.47;;;1.65;;
78824;SDS011;68176;45.554;10.220;2024-03-07T01:26:21;4.78;;;1.88;;
78824;SDS011;68176;45.554;10.220;2024-03-07T01:28:51;2.95;;;1.45;;
78824;SDS011;68176;45.554;10.220;2024-03-07T01:31:21;2.95;;;1.85;;
78824;SDS011;68176;45.554;10.220;2024-03-07T01:33:51;2.72;;;1.60;;
78824;SDS011;68176;45.554;10.220;2024-03-07T01:36:21;2.70;;;1.65;;
78824;SDS011;68176;45.554;10.220;2024-03-07T01:41:21;3.47;;;1.92;;
78824;SDS011;68176;45.554;10.220;2024-03-07T01:43:51;3.03;;;2.17;;
78824;SDS011;68176;45.554;10.220;2024-03-07T01:46:21;3.45;;;1.50;;
78824;SDS011;68176;45.554;10.220;2024-03-07T01:51:21;2.35;;;1.38;;
78824;SDS011;68176;45.554;10.220;2024-03-07T01:53:51;1.92;;;0.88;;
78824;SDS011;68176;45.554;10.220;2024-03-07T01:56:21;2.35;;;1.52;;
78824;SDS011;68176;45.554;10.220;2024-03-07T01:58:51;2.75;;;1.50;;
78824;SDS011;68176;45.554;10.220;2024-03-07T02:01:21;2.20;;;1.25;;
78824;SDS011;68176;45.554;10.220;2024-03-07T02:03:51;2.75;;;1.50;;
78824;SDS011;68176;45.554;10.220;2024-03-07T02:06:21;2.35;;;1.63;;
78824;SDS011;68176;45.554;10.220;2024-03-07T02:08:51;2.78;;;1.50;;
78824;SDS011;68176;45.554;10.220;2024-03-07T02:11:21;3.20;;;1.55;;
78824;SDS011;68176;45.554;10.220;2024-03-07T02:13:51;3.13;;;1.13;;
78824;SDS011;68176;45.554;10.220;2024-03-07T02:16:21;3.22;;;1.45;;
78824;SDS011;68176;45.554;10.220;2024-03-07T02:18:51;3.33;;;1.45;;
78824;SDS011;68176;45.554;10.220;2024-03-07T02:21:21;1.73;;;1.02;;
78824;SDS011;68176;45.554;10.220;2024-03-07T02:23:51;3.70;;;1.70;;
78824;SDS011;68176;45.554;10.220;2024-03-07T02:26:21;2.40;;;1.67;;
78824;SDS011;68176;45.554;10.220;2024-03-07T02:31:21;2.85;;;1.65;;
78824;SDS011;68176;45.554;10.220;2024-03-07T02:33:59;1.90;;;1.10;;
78824;SDS011;68176;45.554;10.220;2024-03-07T02:36:28;1.75;;;1.40;;
78824;SDS011;68176;45.554;10.220;2024-03-07T02:38:53;2.10;;;1.15;;
78824;SDS011;68176;45.554;10.220;2024-03-07T02:41:23;2.13;;;1.48;;
78824;SDS011;68176;45.554;10.220;2024-03-07T02:43:53;3.05;;;1.67;;
78824;SDS011;68176;45.554;10.220;2024-03-07T02:46:23;2.50;;;1.33;;
78824;SDS011;68176;45.554;10.220;2024-03-07T02:48:53;2.45;;;1.48;;
78824;SDS011;68176;45.554;10.220;2024-03-07T02:51:24;2.67;;;1.42;;
78824;SDS011;68176;45.554;10.220;2024-03-07T02:53:53;2.15;;;1.38;;
78824;SDS011;68176;45.554;10.220;2024-03-07T02:56:24;2.17;;;1.38;;
78824;SDS011;68176;45.554;10.220;2024-03-07T02:58:53;2.13;;;1.52;;
78824;SDS011;68176;45.554;10.220;2024-03-07T03:01:24;2.30;;;1.15;;
78824;SDS011;68176;45.554;10.220;2024-03-07T03:03:54;2.38;;;1.30;;
78824;SDS011;68176;45.554;10.220;2024-03-07T03:06:24;2.97;;;1.55;;
78824;SDS011;68176;45.554;10.220;2024-03-07T03:08:54;2.53;;;1.45;;
78824;SDS011;68176;45.554;10.220;2024-03-07T03:16:24;2.17;;;1.35;;
78824;SDS011;68176;45.554;10.220;2024-03-07T03:21:24;2.47;;;1.33;;
78824;SDS011;68176;45.554;10.220;2024-03-07T03:23:54;2.28;;;1.27;;
78824;SDS011;68176;45.554;10.220;2024-03-07T03:26:24;2.22;;;1.30;;
78824;SDS011;68176;45.554;10.220;2024-03-07T03:31:24;2.55;;;1.67;;
78824;SDS011;68176;45.554;10.220;2024-03-07T03:33:54;3.83;;;1.55;;
78824;SDS011;68176;45.554;10.220;2024-03-07T03:36:24;2.30;;;1.42;;
78824;SDS011;68176;45.554;10.220;2024-03-07T03:38:54;1.90;;;0.95;;
78824;SDS011;68176;45.554;10.220;2024-03-07T03:41:23;2.13;;;1.33;;
78824;SDS011;68176;45.554;10.220;2024-03-07T03:43:54;2.78;;;1.55;;
78824;SDS011;68176;45.554;10.220;2024-03-07T03:46:24;2.72;;;1.52;;
78824;SDS011;68176;45.554;10.220;2024-03-07T03:51:24;2.25;;;1.20;;
78824;SDS011;68176;45.554;10.220;2024-03-07T03:53:54;2.08;;;1.20;;
78824;SDS011;68176;45.554;10.220;2024-03-07T03:56:24;2.20;;;1.10;;
78824;SDS011;68176;45.554;10.220;2024-03-07T03:58:54;2.40;;;1.33;;
78824;SDS011;68176;45.554;10.220;2024-03-07T04:01:24;2.35;;;1.20;;
78824;SDS011;68176;45.554;10.220;2024-03-07T04:03:54;2.72;;;1.23;;
78824;SDS011;68176;45.554;10.220;2024-03-07T04:06:24;2.30;;;1.48;;
78824;SDS011;68176;45.554;10.220;2024-03-07T04:08:54;3.00;;;1.60;;
78824;SDS011;68176;45.554;10.220;2024-03-07T04:11:24;2.05;;;1.60;;
78824;SDS011;68176;45.554;10.220;2024-03-07T04:13:54;3.20;;;1.70;;
78824;SDS011;68176;45.554;10.220;2024-03-07T04:16:24;1.88;;;1.20;;
78824;SDS011;68176;45.554;10.220;2024-03-07T04:18:54;1.92;;;1.13;;
78824;SDS011;68176;45.554;10.220;2024-03-07T04:23:54;2.47;;;1.20;;
78824;SDS011;68176;45.554;10.220;2024-03-07T04:26:24;2.67;;;1.00;;
78824;SDS011;68176;45.554;10.220;2024-03-07T04:28:54;2.35;;;1.52;;
78824;SDS011;68176;45.554;10.220;2024-03-07T04:31:24;1.83;;;1.02;;
78824;SDS011;68176;45.554;10.220;2024-03-07T04:33:54;3.28;;;1.35;;
78824;SDS011;68176;45.554;10.220;2024-03-07T04:36:24;2.30;;;1.15;;
78824;SDS011;68176;45.554;10.220;2024-03-07T04:38:54;2.13;;;1.27;;
78824;SDS011;68176;45.554;10.220;2024-03-07T04:41:24;2.35;;;1.58;;
78824;SDS011;68176;45.554;10.220;2024-03-07T04:46:24;2.03;;;1.15;;
78824;SDS011;68176;45.554;10.220;2024-03-07T04:48:54;2.53;;;1.35;;
78824;SDS011;68176;45.554;10.220;2024-03-07T04:51:24;2.33;;;1.65;;
78824;SDS011;68176;45.554;10.220;2024-03-07T04:53:54;2.03;;;1.35;;
78824;SDS011;68176;45.554;10.220;2024-03-07T04:56:24;2.65;;;1.00;;
78824;SDS011;68176;45.554;10.220;2024-03-07T04:58:54;2.60;;;1.50;;
78824;SDS011;68176;45.554;10.220;2024-03-07T05:01:24;2.03;;;1.10;;
78824;SDS011;68176;45.554;10.220;2024-03-07T05:03:54;2.33;;;1.42;;
78824;SDS011;68176;45.554;10.220;2024-03-07T05:06:24;3.00;;;1.40;;
78824;SDS011;68176;45.554;10.220;2024-03-07T05:08:54;2.10;;;1.33;;
78824;SDS011;68176;45.554;10.220;2024-03-07T05:11:24;2.10;;;1.17;;
78824;SDS011;68176;45.554;10.220;2024-03-07T05:16:24;2.17;;;1.30;;
78824;SDS011;68176;45.554;10.220;2024-03-07T05:18:54;1.58;;;1.13;;
78824;SDS011;68176;45.554;10.220;2024-03-07T05:21:25;1.90;;;1.20;;
78824;SDS011;68176;45.554;10.220;2024-03-07T05:23:57;1.40;;;0.90;;
78824;SDS011;68176;45.554;10.220;2024-03-07T05:26:24;2.33;;;1.42;;
78824;SDS011;68176;45.554;10.220;2024-03-07T05:28:54;2.22;;;1.13;;
78824;SDS011;68176;45.554;10.220;2024-03-07T05:31:24;2.63;;;1.92;;
78824;SDS011;68176;45.554;10.220;2024-03-07T05:33:54;1.80;;;1.00;;
78824;SDS011;68176;45.554;10.220;2024-03-07T05:36:26;1.90;;;1.20;;
78824;SDS011;68176;45.554;10.220;2024-03-07T05:38:54;2.30;;;1.20;;
78824;SDS011;68176;45.554;10.220;2024-03-07T05:41:25;2.95;;;1.15;;
78824;SDS011;68176;45.554;10.220;2024-03-07T05:43:55;1.98;;;1.25;;
78824;SDS011;68176;45.554;10.220;2024-03-07T05:46:24;2.80;;;1.70;;
78824;SDS011;68176;45.554;10.220;2024-03-07T05:48:54;1.88;;;1.00;;
78824;SDS011;68176;45.554;10.220;2024-03-07T05:51:24;2.70;;;1.52;;
78824;SDS011;68176;45.554;10.220;2024-03-07T05:53:54;2.78;;;1.45;;
78824;SDS011;68176;45.554;10.220;2024-03-07T05:56:25;2.03;;;1.05;;
78824;SDS011;68176;45.554;10.220;2024-03-07T05:58:54;2.03;;;1.33;;
78824;SDS011;68176;45.554;10.220;2024-03-07T06:03:55;2.28;;;1.15;;
78824;SDS011;68176;45.554;10.220;2024-03-07T06:06:25;2.47;;;1.33;;
78824;SDS011;68176;45.554;10.220;2024-03-07T06:08:54;2.08;;;1.20;;
78824;SDS011;68176;45.554;10.220;2024-03-07T06:11:24;3.42;;;1.42;;
78824;SDS011;68176;45.554;10.220;2024-03-07T06:13:55;2.25;;;0.95;;
78824;SDS011;68176;45.554;10.220;2024-03-07T06:16:24;3.08;;;1.33;;
78824;SDS011;68176;45.554;10.220;2024-03-07T06:18:54;2.65;;;1.65;;
78824;SDS011;68176;45.554;10.220;2024-03-07T06:21:24;1.95;;;1.17;;
78824;SDS011;68176;45.554;10.220;2024-03-07T06:23:55;2.03;;;1.25;;
78824;SDS011;68176;45.554;10.220;2024-03-07T06:26:28;2.03;;;1.48;;
78824;SDS011;68176;45.554;10.220;2024-03-07T06:29:06;2.17;;;0.97;;
78824;SDS011;68176;45.554;10.220;2024-03-07T06:31:33;2.00;;;1.10;;
78824;SDS011;68176;45.554;10.220;2024-03-07T06:34:00;2.22;;;1.27;;
78824;SDS011;68176;45.554;10.220;2024-03-07T06:36:30;2.10;;;1.08;;
78824;SDS011;68176;45.554;10.220;2024-03-07T06:41:31;2.00;;;1.30;;
78824;SDS011;68176;45.554;10.220;2024-03-07T06:44:00;2.53;;;1.67;;
78824;SDS011;68176;45.554;10.220;2024-03-07T06:46:30;2.08;;;1.23;;
78824;SDS011;68176;45.554;10.220;2024-03-07T06:49:00;1.70;;;1.13;;
78824;SDS011;68176;45.554;10.220;2024-03-07T06:51:30;1.48;;;0.80;;
78824;SDS011;68176;45.554;10.220;2024-03-07T06:54:00;1.98;;;1.25;;
78824;SDS011;68176;45.554;10.220;2024-03-07T06:59:00;1.67;;;0.90;;
78824;SDS011;68176;45.554;10.220;2024-03-07T07:01:30;8.55;;;5.38;;
78824;SDS011;68176;45.554;10.220;2024-03-07T07:06:30;7.20;;;5.13;;
78824;SDS011;68176;45.554;10.220;2024-03-07T07:09:00;6.75;;;4.95;;
78824;SDS011;68176;45.554;10.220;2024-03-07T07:11:30;5.72;;;4.30;;
78824;SDS011;68176;45.554;10.220;2024-03-07T07:14:01;6.85;;;4.50;;
78824;SDS011;68176;45.554;10.220;2024-03-07T07:16:30;7.43;;;4.10;;
78824;SDS011;68176;45.554;10.220;2024-03-07T07:19:00;12.90;;;4.07;;
78824;SDS011;68176;45.554;10.220;2024-03-07T07:21:30;8.27;;;5.82;;
78824;SDS011;68176;45.554;10.220;2024-03-07T07:24:00;8.85;;;6.05;;
78824;SDS011;68176;45.554;10.220;2024-03-07T07:26:30;8.77;;;5.30;;
78824;SDS011;68176;45.554;10.220;2024-03-07T07:29:00;18.05;;;4.82;;
78824;SDS011;68176;45.554;10.220;2024-03-07T07:31:30;4.45;;;3.67;;
78824;SDS011;68176;45.554;10.220;2024-03-07T07:34:00;7.05;;;4.53;;
78824;SDS011;68176;45.554;10.220;2024-03-07T07:36:30;6.40;;;3.78;;
78824;SDS011;68176;45.554;10.220;2024-03-07T07:39:00;5.10;;;3.85;;
78824;SDS011;68176;45.554;10.220;2024-03-07T07:41:30;6.10;;;4.53;;
78824;SDS011;68176;45.554;10.220;2024-03-07T07:44:00;6.10;;;3.72;;
78824;SDS011;68176;45.554;10.220;2024-03-07T07:46:30;6.82;;;3.83;;
78824;SDS011;68176;45.554;10.220;2024-03-07T07:51:30;7.25;;;3.35;;
78824;SDS011;68176;45.554;10.220;2024-03-07T07:59:01;10.48;;;3.10;;
78824;SDS011;68176;45.554;10.220;2024-03-07T08:01:32;4.53;;;3.13;;
78824;SDS011;68176;45.554;10.220;2024-03-07T08:04:00;5.60;;;4.10;;
78824;SDS011;68176;45.554;10.220;2024-03-07T08:06:31;4.70;;;3.58;;
78824;SDS011;68176;45.554;10.220;2024-03-07T08:11:31;6.53;;;3.25;;
78824;SDS011;68176;45.554;10.220;2024-03-07T08:14:01;7.32;;;3.13;;
78824;SDS011;68176;45.554;10.220;2024-03-07T08:16:30;5.10;;;3.45;;
78824;SDS011;68176;45.554;10.220;2024-03-07T08:21:31;5.18;;;2.97;;
78824;SDS011;68176;45.554;10.220;2024-03-07T08:24:01;3.88;;;2.90;;
78824;SDS011;68176;45.554;10.220;2024-03-07T08:26:31;6.80;;;3.13;;
78824;SDS011;68176;45.554;10.220;2024-03-07T08:29:01;6.28;;;3.10;;
78824;SDS011;68176;45.554;10.220;2024-03-07T08:31:31;4.93;;;3.15;;
78824;SDS011;68176;45.554;10.220;2024-03-07T08:34:01;5.20;;;2.40;;
78824;SDS011;68176;45.554;10.220;2024-03-07T08:36:31;4.93;;;3.08;;
78824;SDS011;68176;45.554;10.220;2024-03-07T08:39:01;3.28;;;2.45;;
78824;SDS011;68176;45.554;10.220;2024-03-07T08:41:31;5.03;;;3.38;;
78824;SDS011;68176;45.554;10.220;2024-03-07T08:44:01;4.32;;;3.05;;
78824;SDS011;68176;45.554;10.220;2024-03-07T08:46:31;5.05;;;2.72;;
78824;SDS011;68176;45.554;10.220;2024-03-07T08:49:01;4.20;;;2.97;;
78824;SDS011;68176;45.554;10.220;2024-03-07T08:51:31;3.17;;;1.95;;
78824;SDS011;68176;45.554;10.220;2024-03-07T08:54:01;6.95;;;2.63;;
78824;SDS011;68176;45.554;10.220;2024-03-07T08:56:31;4.65;;;2.30;;
78824;SDS011;68176;45.554;10.220;2024-03-07T08:59:01;6.88;;;2.28;;
78824;SDS011;68176;45.554;10.220;2024-03-07T09:01:31;3.00;;;2.22;;
78824;SDS011;68176;45.554;10.220;2024-03-07T09:04:01;5.90;;;2.17;;
78824;SDS011;68176;45.554;10.220;2024-03-07T09:06:31;6.00;;;3.47;;
78824;SDS011;68176;45.554;10.220;2024-03-07T09:09:01;10.30;;;3.53;;
78824;SDS011;68176;45.554;10.220;2024-03-07T09:11:32;6.03;;;2.30;;
78824;SDS011;68176;45.554;10.220;2024-03-07T09:14:01;4.90;;;2.40;;
78824;SDS011;68176;45.554;10.220;2024-03-07T09:16:31;6.93;;;2.63;;
78824;SDS011;68176;45.554;10.220;2024-03-07T09:19:01;9.57;;;3.33;;
78824;SDS011;68176;45.554;10.220;2024-03-07T09:21:33;7.22;;;2.78;;
78824;SDS011;68176;45.554;10.220;2024-03-07T09:24:01;4.30;;;2.65;;
78824;SDS011;68176;45.554;10.220;2024-03-07T09:26:31;6.70;;;2.85;;
78824;SDS011;68176;45.554;10.220;2024-03-07T09:29:01;4.88;;;2.35;;
78824;SDS011;68176;45.554;10.220;2024-03-07T09:31:34;5.60;;;1.88;;
78824;SDS011;68176;45.554;10.220;2024-03-07T09:34:01;5.68;;;2.53;;
78824;SDS011;68176;45.554;10.220;2024-03-07T09:36:31;5.20;;;2.42;;
78824;SDS011;68176;45.554;10.220;2024-03-07T09:39:01;5.75;;;3.13;;
78824;SDS011;68176;45.554;10.220;2024-03-07T09:41:31;4.93;;;2.67;;
78824;SDS011;68176;45.554;10.220;2024-03-07T09:44:01;4.40;;;2.53;;
78824;SDS011;68176;45.554;10.220;2024-03-07T09:46:31;5.35;;;2.53;;
78824;SDS011;68176;45.554;10.220;2024-03-07T09:49:07;8.27;;;2.30;;
78824;SDS011;68176;45.554;10.220;2024-03-07T09:51:35;5.30;;;2.40;;
78824;SDS011;68176;45.554;10.220;2024-03-07T09:56:31;4.80;;;2.15;;
78824;SDS011;68176;45.554;10.220;2024-03-07T10:01:32;3.40;;;2.10;;
78824;SDS011;68176;45.554;10.220;2024-03-07T10:04:01;3.65;;;2.00;;
78824;SDS011;68176;45.554;10.220;2024-03-07T10:06:36;3.67;;;2.17;;
78824;SDS011;68176;45.554;10.220;2024-03-07T10:09:10;5.20;;;2.33;;
78824;SDS011;68176;45.554;10.220;2024-03-07T10:11:39;4.00;;;1.20;;
78824;SDS011;68176;45.554;10.220;2024-03-07T10:14:06;2.00;;;1.35;;
78824;SDS011;68176;45.554;10.220;2024-03-07T10:16:34;4.70;;;1.50;;
78824;SDS011;68176;45.554;10.220;2024-03-07T10:19:04;2.53;;;1.65;;
78824;SDS011;68176;45.554;10.220;2024-03-07T10:21:34;3.90;;;2.03;;
78824;SDS011;68176;45.554;10.220;2024-03-07T10:24:05;3.97;;;1.92;;
78824;SDS011;68176;45.554;10.220;2024-03-07T10:26:37;8.43;;;3.80;;
78824;SDS011;68176;45.554;10.220;2024-03-07T10:29:04;3.00;;;1.33;;
78824;SDS011;68176;45.554;10.220;2024-03-07T10:31:34;2.97;;;1.58;;
78824;SDS011;68176;45.554;10.220;2024-03-07T10:34:04;2.85;;;1.67;;
78824;SDS011;68176;45.554;10.220;2024-03-07T10:36:34;5.68;;;3.28;;
78824;SDS011;68176;45.554;10.220;2024-03-07T10:39:04;5.65;;;1.88;;
78824;SDS011;68176;45.554;10.220;2024-03-07T10:44:10;3.67;;;1.00;;
78824;SDS011;68176;45.554;10.220;2024-03-07T10:46:41;2.07;;;1.07;;
78824;SDS011;68176;45.554;10.220;2024-03-07T10:49:12;3.78;;;2.53;;
78824;SDS011;68176;45.554;10.220;2024-03-07T10:51:42;6.33;;;4.63;;
78824;SDS011;68176;45.554;10.220;2024-03-07T10:59:31;8.75;;;3.38;;
78824;SDS011;68176;45.554;10.220;2024-03-07T11:04:54;6.38;;;4.15;;
78824;SDS011;68176;45.554;10.220;2024-03-07T11:07:21;3.50;;;3.00;;
78824;SDS011;68176;45.554;10.220;2024-03-07T11:09:51;5.95;;;2.50;;
78824;SDS011;68176;45.554;10.220;2024-03-07T11:12:22;7.90;;;3.92;;
78824;SDS011;68176;45.554;10.220;2024-03-07T11:17:19;5.38;;;3.33;;
78824;SDS011;68176;45.554;10.220;2024-03-07T11:23:00;5.23;;;4.07;;
78824;SDS011;68176;45.554;10.220;2024-03-07T11:25:47;5.20;;;3.38;;
78824;SDS011;68176;45.554;10.220;2024-03-07T11:28:13;10.15;;;4.05;;
78824;SDS011;68176;45.554;10.220;2024-03-07T11:33:10;5.55;;;3.70;;
78824;SDS011;68176;45.554;10.220;2024-03-07T11:38:59;5.50;;;3.75;;
78824;SDS011;68176;45.554;10.220;2024-03-07T11:41:25;3.20;;;2.00;;
78824;SDS011;68176;45.554;10.220;2024-03-07T11:43:54;5.00;;;3.35;;
78824;SDS011;68176;45.554;10.220;2024-03-07T11:46:36;4.40;;;3.25;;
78824;SDS011;68176;45.554;10.220;2024-03-07T11:49:01;5.20;;;3.40;;
78824;SDS011;68176;45.554;10.220;2024-03-07T11:51:27;5.95;;;3.30;;
78824;SDS011;68176;45.554;10.220;2024-03-07T11:53:55;7.00;;;3.47;;
78824;SDS011;68176;45.554;10.220;2024-03-07T11:56:25;7.53;;;3.95;;
78824;SDS011;68176;45.554;10.220;2024-03-07T11:58:56;9.13;;;3.72;;
78824;SDS011;68176;45.554;10.220;2024-03-07T12:01:26;5.28;;;3.22;;
78824;SDS011;68176;45.554;10.220;2024-03-07T12:03:55;12.98;;;4.15;;
78824;SDS011;68176;45.554;10.220;2024-03-07T12:06:25;6.95;;;3.00;;
78824;SDS011;68176;45.554;10.220;2024-03-07T12:08:56;6.88;;;3.38;;
78824;SDS011;68176;45.554;10.220;2024-03-07T12:11:25;7.35;;;3.47;;
78824;SDS011;68176;45.554;10.220;2024-03-07T12:16:25;7.22;;;4.70;;
78824;SDS011;68176;45.554;10.220;2024-03-07T12:19:11;10.32;;;5.40;;
78824;SDS011;68176;45.554;10.220;2024-03-07T12:21:37;6.43;;;4.50;;
78824;SDS011;68176;45.554;10.220;2024-03-07T12:24:13;5.30;;;3.60;;
78824;SDS011;68176;45.554;10.220;2024-03-07T12:26:40;7.22;;;4.75;;
78824;SDS011;68176;45.554;10.220;2024-03-07T12:29:13;11.60;;;5.50;;
78824;SDS011;68176;45.554;10.220;2024-03-07T12:31:41;6.13;;;4.78;;
78824;SDS011;68176;45.554;10.220;2024-03-07T12:34:07;8.50;;;4.10;;
78824;SDS011;68176;45.554;10.220;2024-03-07T12:36:36;8.35;;;4.35;;
78824;SDS011;68176;45.554;10.220;2024-03-07T12:41:55;8.25;;;5.05;;
78824;SDS011;68176;45.554;10.220;2024-03-07T12:44:24;4.60;;;3.00;;
78824;SDS011;68176;45.554;10.220;2024-03-07T12:46:53;8.90;;;3.30;;
78824;SDS011;68176;45.554;10.220;2024-03-07T12:49:22;11.47;;;4.50;;
78824;SDS011;68176;45.554;10.220;2024-03-07T12:51:53;5.00;;;4.00;;
78824;SDS011;68176;45.554;10.220;2024-03-07T12:54:19;3.00;;;2.60;;
78824;SDS011;68176;45.554;10.220;2024-03-07T12:56:48;10.10;;;5.00;;
78824;SDS011;68176;45.554;10.220;2024-03-07T12:59:18;11.07;;;6.65;;
78824;SDS011;68176;45.554;10.220;2024-03-07T13:01:48;12.50;;;5.55;;
78824;SDS011;68176;45.554;10.220;2024-03-07T13:04:18;13.05;;;7.10;;
78824;SDS011;68176;45.554;10.220;2024-03-07T13:06:48;18.38;;;8.13;;
78824;SDS011;68176;45.554;10.220;2024-03-07T13:09:18;11.48;;;7.00;;
78824;SDS011;68176;45.554;10.220;2024-03-07T13:11:51;9.20;;;6.30;;
78824;SDS011;68176;45.554;10.220;2024-03-07T13:14:18;9.40;;;7.00;;
78824;SDS011;68176;45.554;10.220;2024-03-07T13:19:18;10.65;;;6.82;;
78824;SDS011;68176;45.554;10.220;2024-03-07T13:21:48;10.52;;;7.80;;
78824;SDS011;68176;45.554;10.220;2024-03-07T13:24:18;10.82;;;7.13;;
78824;SDS011;68176;45.554;10.220;2024-03-07T13:27:05;9.05;;;6.88;;
78824;SDS011;68176;45.554;10.220;2024-03-07T13:29:47;11.05;;;7.18;;
78824;SDS011;68176;45.554;10.220;2024-03-07T13:32:50;9.60;;;6.55;;
78824;SDS011;68176;45.554;10.220;2024-03-07T13:35:17;10.30;;;5.05;;
78824;SDS011;68176;45.554;10.220;2024-03-07T13:37:44;5.70;;;4.00;;
78824;SDS011;68176;45.554;10.220;2024-03-07T13:40:14;9.82;;;4.07;;
78824;SDS011;68176;45.554;10.220;2024-03-07T13:42:49;5.20;;;2.75;;
78824;SDS011;68176;45.554;10.220;2024-03-07T13:45:23;6.57;;;2.92;;
78824;SDS011;68176;45.554;10.220;2024-03-07T13:47:51;5.13;;;3.33;;
78824;SDS011;68176;45.554;10.220;2024-03-07T13:52:47;1.50;;;0.80;;
78824;SDS011;68176;45.554;10.220;2024-03-07T13:58:34;4.90;;;2.50;;
78824;SDS011;68176;45.554;10.220;2024-03-07T14:10:00;5.70;;;2.57;;
78824;SDS011;68176;45.554;10.220;2024-03-07T14:35:11;4.90;;;2.50;;
78824;SDS011;68176;45.554;10.220;2024-03-07T14:40:41;5.57;;;2.00;;
78824;SDS011;68176;45.554;10.220;2024-03-07T14:43:09;4.30;;;1.30;;
78824;SDS011;68176;45.554;10.220;2024-03-07T14:45:41;3.95;;;2.33;;
78824;SDS011;68176;45.554;10.220;2024-03-07T14:48:07;2.10;;;1.20;;
78824;SDS011;68176;45.554;10.220;2024-03-07T14:53:05;3.35;;;1.77;;
78824;SDS011;68176;45.554;10.220;2024-03-07T14:55:35;3.53;;;2.08;;
78824;SDS011;68176;45.554;10.220;2024-03-07T14:58:05;6.28;;;2.15;;
78824;SDS011;68176;45.554;10.220;2024-03-07T15:00:38;5.18;;;2.10;;
78824;SDS011;68176;45.554;10.220;2024-03-07T15:03:09;1.50;;;1.15;;
78824;SDS011;68176;45.554;10.220;2024-03-07T15:08:05;4.25;;;2.38;;
78824;SDS011;68176;45.554;10.220;2024-03-07T15:13:06;6.28;;;1.77;;
78824;SDS011;68176;45.554;10.220;2024-03-07T15:15:35;5.55;;;2.60;;
78824;SDS011;68176;45.554;10.220;2024-03-07T15:20:35;4.95;;;1.98;;
78824;SDS011;68176;45.554;10.220;2024-03-07T15:23:05;5.68;;;2.17;;
78824;SDS011;68176;45.554;10.220;2024-03-07T15:25:35;4.10;;;2.15;;
78824;SDS011;68176;45.554;10.220;2024-03-07T15:28:05;3.45;;;2.03;;
78824;SDS011;68176;45.554;10.220;2024-03-07T15:30:35;3.10;;;1.67;;
78824;SDS011;68176;45.554;10.220;2024-03-07T15:33:05;5.15;;;1.60;;
78824;SDS011;68176;45.554;10.220;2024-03-07T15:35:35;4.18;;;1.27;;
78824;SDS011;68176;45.554;10.220;2024-03-07T15:38:05;2.85;;;1.98;;
78824;SDS011;68176;45.554;10.220;2024-03-07T15:40:35;3.90;;;1.85;;
78824;SDS011;68176;45.554;10.220;2024-03-07T15:43:05;5.13;;;1.98;;
78824;SDS011;68176;45.554;10.220;2024-03-07T15:45:35;3.72;;;1.80;;
78824;SDS011;68176;45.554;10.220;2024-03-07T15:48:05;4.43;;;1.83;;
78824;SDS011;68176;45.554;10.220;2024-03-07T15:50:36;3.58;;;1.95;;
78824;SDS011;68176;45.554;10.220;2024-03-07T15:53:05;3.28;;;1.67;;
78824;SDS011;68176;45.554;10.220;2024-03-07T15:55:36;3.28;;;1.83;;
78824;SDS011;68176;45.554;10.220;2024-03-07T15:58:05;3.17;;;1.85;;
78824;SDS011;68176;45.554;10.220;2024-03-07T16:00:36;5.47;;;1.70;;
78824;SDS011;68176;45.554;10.220;2024-03-07T16:03:06;2.78;;;1.63;;
78824;SDS011;68176;45.554;10.220;2024-03-07T16:05:36;2.35;;;1.48;;
78824;SDS011;68176;45.554;10.220;2024-03-07T16:08:06;3.10;;;1.75;;
78824;SDS011;68176;45.554;10.220;2024-03-07T16:10:37;3.50;;;1.83;;
78824;SDS011;68176;45.554;10.220;2024-03-07T16:13:09;2.63;;;1.95;;
78824;SDS011;68176;45.554;10.220;2024-03-07T16:15:40;9.00;;;1.80;;
78824;SDS011;68176;45.554;10.220;2024-03-07T16:18:08;1.65;;;0.90;;
78824;SDS011;68176;45.554;10.220;2024-03-07T16:20:36;4.47;;;1.73;;
78824;SDS011;68176;45.554;10.220;2024-03-07T16:23:05;5.07;;;1.77;;
78824;SDS011;68176;45.554;10.220;2024-03-07T16:25:37;2.78;;;1.67;;
78824;SDS011;68176;45.554;10.220;2024-03-07T16:28:06;3.33;;;1.45;;
78824;SDS011;68176;45.554;10.220;2024-03-07T16:30:36;3.15;;;1.73;;
78824;SDS011;68176;45.554;10.220;2024-03-07T16:33:06;2.97;;;1.67;;
78824;SDS011;68176;45.554;10.220;2024-03-07T16:35:36;5.22;;;1.83;;
78824;SDS011;68176;45.554;10.220;2024-03-07T16:38:06;3.60;;;2.22;;
78824;SDS011;68176;45.554;10.220;2024-03-07T16:40:36;2.78;;;1.75;;
78824;SDS011;68176;45.554;10.220;2024-03-07T16:43:06;3.17;;;1.45;;
78824;SDS011;68176;45.554;10.220;2024-03-07T16:45:36;3.03;;;1.45;;
78824;SDS011;68176;45.554;10.220;2024-03-07T16:48:06;2.90;;;1.63;;
78824;SDS011;68176;45.554;10.220;2024-03-07T16:50:36;3.85;;;1.70;;
78824;SDS011;68176;45.554;10.220;2024-03-07T16:53:06;2.40;;;1.52;;
78824;SDS011;68176;45.554;10.220;2024-03-07T16:55:36;3.10;;;1.60;;
78824;SDS011;68176;45.554;10.220;2024-03-07T16:58:06;3.72;;;1.88;;
78824;SDS011;68176;45.554;10.220;2024-03-07T17:00:36;3.37;;;1.63;;
78824;SDS011;68176;45.554;10.220;2024-03-07T17:05:36;5.75;;;3.15;;
78824;SDS011;68176;45.554;10.220;2024-03-07T17:08:06;5.27;;;3.60;;
78824;SDS011;68176;45.554;10.220;2024-03-07T17:10:36;6.85;;;3.40;;
78824;SDS011;68176;45.554;10.220;2024-03-07T17:13:07;6.13;;;3.88;;
78824;SDS011;68176;45.554;10.220;2024-03-07T17:15:36;8.57;;;4.53;;
78824;SDS011;68176;45.554;10.220;2024-03-07T17:18:06;8.07;;;4.25;;